Weekends aéronautiques.


Loading...

Découvrez nos événements toute l'année.

Social Wall.

Suivez-nous sur les réseaux sociaux comme Facebook et Instagram pour découvrir des actualités inédites !

Facebook.
Comments Box SVG iconsUsed for the like, share, comment, and reaction icons

Bernard a fait le voyage de Londres à Reims pour vivre son grand moment d’aéronautique !!! ... See MoreSee Less

Bernard a fait le voyage de Londres à Reims pour vivre son grand moment d’aéronautique !!!Image attachment

Comment on Facebook

Bravo Bernard et Ponpon, un de nos super pilotes 👏👏

Yannick s’est offert un beau cadeau pour ses 50 ans… bon anniversaire 🎉 👍 ... See MoreSee Less

Yannick s’est offert un beau cadeau pour ses 50 ans… bon anniversaire 🎉 👍

Comment on Facebook

Bon choix et joyeux anniversaire 🥂🥂

METAR :

LFQA 272030Z AUTO 29005KT 250V310 9999 FEW007/// SCT021/// BKN052/// ///CB 11/09 Q1000


vue en direct sur l'aérodrome
facturation mentions légales politique de confidentialité
Cochet Concept
cx